CheckWX is a tool to help pilots better visualize weather data.  It is not intended as a substitute for an official pre-flight weather briefing.

06:51:04 UTC

FBSP TAF
Selebi Phikwe Airport
Botswana
TAF FBSP 240300Z 2406/2415 06022KT 9999 SCT025

Apr-24@
06:00 UTC

Apr-24 @ 06:00 UTC

Apr-24@
15:00 UTC

Apr-24 @ 15:00 UTC

TAF FBSP 240300Z 2406/2415 06022KT 9999 SCT025
Wind
  • 060° at 22 KTS
Cloud Levels
  • Scattered at 2,500' AGL